sensor_id;sensor_type;location;lat;lon;timestamp;pressure;altitude;pressure_sealevel;temperature;humidity
10127;BME280;13080;42.608;23.362;2023-04-01T00:01:26;153940.75;;;11.22;51.24
10127;BME280;13080;42.608;23.362;2023-04-01T00:03:52;153916.06;;;11.12;52.36
10127;BME280;13080;42.608;23.362;2023-04-01T00:06:21;153890.06;;;11.02;52.36
10127;BME280;13080;42.608;23.362;2023-04-01T00:08:48;153878.38;;;10.97;55.53
10127;BME280;13080;42.608;23.362;2023-04-01T00:11:16;153826.41;;;10.77;57.85
10127;BME280;13080;42.608;23.362;2023-04-01T00:13:44;153748.47;;;10.46;59.92
10127;BME280;13080;42.608;23.362;2023-04-01T00:16:11;153696.50;;;10.26;61.70
10127;BME280;13080;42.608;23.362;2023-04-01T00:18:38;153631.59;;;10.00;62.43
10127;BME280;13080;42.608;23.362;2023-04-01T00:21:05;153605.63;;;9.90;62.93
10127;BME280;13080;42.608;23.362;2023-04-01T00:23:32;153561.47;;;9.72;63.59
10127;BME280;13080;42.608;23.362;2023-04-01T00:25:59;153521.25;;;9.56;63.95
10127;BME280;13080;42.608;23.362;2023-04-01T00:28:26;153510.84;;;9.52;64.46
10127;BME280;13080;42.608;23.362;2023-04-01T00:30:54;153491.41;;;9.45;64.67
10127;BME280;13080;42.608;23.362;2023-04-01T00:33:21;153477.09;;;9.39;64.55
10127;BME280;13080;42.608;23.362;2023-04-01T00:36:07;153471.91;;;9.37;64.41
10127;BME280;13080;42.608;23.362;2023-04-01T00:38:35;153466.78;;;9.35;65.08
10127;BME280;13080;42.608;23.362;2023-04-01T00:41:03;153464.16;;;9.34;64.41
10127;BME280;13080;42.608;23.362;2023-04-01T00:43:30;153468.06;;;9.35;65.29
10127;BME280;13080;42.608;23.362;2023-04-01T00:45:58;153468.06;;;9.35;65.25
10127;BME280;13080;42.608;23.362;2023-04-01T00:48:28;153466.78;;;9.35;66.22
10127;BME280;13080;42.608;23.362;2023-04-01T00:50:59;153477.09;;;9.39;64.61
10127;BME280;13080;42.608;23.362;2023-04-01T00:53:28;153464.16;;;9.34;64.34
10127;BME280;13080;42.608;23.362;2023-04-01T00:55:59;153464.16;;;9.34;64.81
10127;BME280;13080;42.608;23.362;2023-04-01T00:58:29;153465.44;;;9.34;64.99
10127;BME280;13080;42.608;23.362;2023-04-01T01:00:59;153460.22;;;9.32;64.66
10127;BME280;13080;42.608;23.362;2023-04-01T01:03:27;153457.66;;;9.31;64.39
10127;BME280;13080;42.608;23.362;2023-04-01T01:06:08;153439.50;;;9.24;64.60
10127;BME280;13080;42.608;23.362;2023-04-01T01:08:52;153418.72;;;9.16;65.83
10127;BME280;13080;42.608;23.362;2023-04-01T01:11:29;153397.97;;;9.08;65.92
10127;BME280;13080;42.608;23.362;2023-04-01T01:14:04;153374.63;;;8.99;66.53
10127;BME280;13080;42.608;23.362;2023-04-01T01:16:39;153357.75;;;8.92;66.77
10127;BME280;13080;42.608;23.362;2023-04-01T01:19:18;153351.28;;;8.89;66.22
10127;BME280;13080;42.608;23.362;2023-04-01T01:22:07;153351.28;;;8.89;66.35
10127;BME280;13080;42.608;23.362;2023-04-01T01:24:54;153333.13;;;8.82;66.93
10127;BME280;13080;42.608;23.362;2023-04-01T01:27:25;153330.56;;;8.81;67.44
10127;BME280;13080;42.608;23.362;2023-04-01T01:30:14;153347.41;;;8.88;67.03
10127;BME280;13080;42.608;23.362;2023-04-01T01:33:04;153340.88;;;8.85;66.93
10127;BME280;13080;42.608;23.362;2023-04-01T01:35:38;153349.97;;;8.89;66.69
10127;BME280;13080;42.608;23.362;2023-04-01T01:38:09;153349.97;;;8.89;66.68
10127;BME280;13080;42.608;23.362;2023-04-01T01:40:39;153344.78;;;8.87;67.03
10127;BME280;13080;42.608;23.362;2023-04-01T01:43:11;153344.78;;;8.87;66.25
10127;BME280;13080;42.608;23.362;2023-04-01T01:45:43;153356.47;;;8.91;65.24
10127;BME280;13080;42.608;23.362;2023-04-01T01:48:11;153364.22;;;8.94;65.27
10127;BME280;13080;42.608;23.362;2023-04-01T01:50:40;153365.56;;;8.95;64.80
10127;BME280;13080;42.608;23.362;2023-04-01T01:53:10;153366.84;;;8.95;64.60
10127;BME280;13080;42.608;23.362;2023-04-01T01:55:39;153382.44;;;9.02;64.30
10127;BME280;13080;42.608;23.362;2023-04-01T01:58:11;153395.38;;;9.07;64.70
10127;BME280;13080;42.608;23.362;2023-04-01T02:00:39;153408.34;;;9.12;62.22
10127;BME280;13080;42.608;23.362;2023-04-01T02:03:07;153416.16;;;9.15;61.63
10127;BME280;13080;42.608;23.362;2023-04-01T02:05:35;153447.28;;;9.27;60.24
10127;BME280;13080;42.608;23.362;2023-04-01T02:08:07;153484.91;;;9.42;56.70
10127;BME280;13080;42.608;23.362;2023-04-01T02:10:37;153522.53;;;9.57;56.46
10127;BME280;13080;42.608;23.362;2023-04-01T02:13:10;153529.06;;;9.60;58.85
10127;BME280;13080;42.608;23.362;2023-04-01T02:15:44;153517.34;;;9.55;59.86
10127;BME280;13080;42.608;23.362;2023-04-01T02:18:13;153514.75;;;9.54;61.15
10127;BME280;13080;42.608;23.362;2023-04-01T02:20:42;153517.34;;;9.55;61.36
10127;BME280;13080;42.608;23.362;2023-04-01T02:23:12;153496.59;;;9.47;61.03
10127;BME280;13080;42.608;23.362;2023-04-01T02:25:40;153486.22;;;9.43;61.60
10127;BME280;13080;42.608;23.362;2023-04-01T02:28:09;153477.09;;;9.39;61.71
10127;BME280;13080;42.608;23.362;2023-04-01T02:30:38;153469.34;;;9.36;61.93
10127;BME280;13080;42.608;23.362;2023-04-01T02:33:06;153455.03;;;9.30;62.41
10127;BME280;13080;42.608;23.362;2023-04-01T02:35:34;153436.88;;;9.23;62.93
10127;BME280;13080;42.608;23.362;2023-04-01T02:38:02;153431.69;;;9.21;63.03
10127;BME280;13080;42.608;23.362;2023-04-01T02:40:41;153430.41;;;9.21;62.37
10127;BME280;13080;42.608;23.362;2023-04-01T02:43:08;153440.78;;;9.25;62.48
10127;BME280;13080;42.608;23.362;2023-04-01T02:45:35;153443.38;;;9.26;61.91
10127;BME280;13080;42.608;23.362;2023-04-01T02:48:02;153444.69;;;9.26;60.77
10127;BME280;13080;42.608;23.362;2023-04-01T02:50:29;153451.19;;;9.29;60.04
10127;BME280;13080;42.608;23.362;2023-04-01T02:52:55;153481.00;;;9.41;58.28
10127;BME280;13080;42.608;23.362;2023-04-01T02:55:22;153552.41;;;9.69;53.73
10127;BME280;13080;42.608;23.362;2023-04-01T02:57:50;153621.19;;;9.96;50.46
10127;BME280;13080;42.608;23.362;2023-04-01T03:00:17;153673.13;;;10.16;49.19
10127;BME280;13080;42.608;23.362;2023-04-01T03:02:44;153754.97;;;10.49;46.84
10127;BME280;13080;42.608;23.362;2023-04-01T03:05:11;153842.03;;;10.83;47.63
10127;BME280;13080;42.608;23.362;2023-04-01T03:07:38;153829.00;;;10.78;52.55
10127;BME280;13080;42.608;23.362;2023-04-01T03:10:06;153835.47;;;10.80;47.03
10127;BME280;13080;42.608;23.362;2023-04-01T03:12:33;153858.91;;;10.90;45.34
10127;BME280;13080;42.608;23.362;2023-04-01T03:15:01;153901.75;;;11.07;45.07
10127;BME280;13080;42.608;23.362;2023-04-01T03:17:28;154004.41;;;11.47;43.31
10127;BME280;13080;42.608;23.362;2023-04-01T03:19:55;154078.50;;;11.76;41.69
10127;BME280;13080;42.608;23.362;2023-04-01T03:22:22;154047.31;;;11.64;43.57
10127;BME280;13080;42.608;23.362;2023-04-01T03:24:48;154034.28;;;11.59;44.15
10127;BME280;13080;42.608;23.362;2023-04-01T03:27:15;154007.03;;;11.48;45.19
10127;BME280;13080;42.608;23.362;2023-04-01T03:29:42;154005.69;;;11.48;46.35
10127;BME280;13080;42.608;23.362;2023-04-01T03:32:10;153992.72;;;11.42;47.43
10127;BME280;13080;42.608;23.362;2023-04-01T03:34:37;153977.09;;;11.36;47.86
10127;BME280;13080;42.608;23.362;2023-04-01T03:37:04;153975.81;;;11.36;46.78
10127;BME280;13080;42.608;23.362;2023-04-01T03:39:31;153984.94;;;11.39;47.09
10127;BME280;13080;42.608;23.362;2023-04-01T03:41:58;153965.41;;;11.32;47.37
10127;BME280;13080;42.608;23.362;2023-04-01T03:44:25;153965.41;;;11.32;47.53
10127;BME280;13080;42.608;23.362;2023-04-01T03:46:51;153953.72;;;11.27;47.83
10127;BME280;13080;42.608;23.362;2023-04-01T03:49:19;153944.66;;;11.23;48.21
10127;BME280;13080;42.608;23.362;2023-04-01T03:51:46;153935.53;;;11.20;49.63
10127;BME280;13080;42.608;23.362;2023-04-01T03:54:13;153900.47;;;11.06;50.50
10127;BME280;13080;42.608;23.362;2023-04-01T03:56:40;153880.94;;;10.98;50.63
10127;BME280;13080;42.608;23.362;2023-04-01T03:59:07;153862.78;;;10.91;50.75
10127;BME280;13080;42.608;23.362;2023-04-01T04:01:34;153861.47;;;10.91;50.63
10127;BME280;13080;42.608;23.362;2023-04-01T04:04:01;153836.81;;;10.81;52.53
10127;BME280;13080;42.608;23.362;2023-04-01T04:06:30;153819.94;;;10.74;51.98
10127;BME280;13080;42.608;23.362;2023-04-01T04:08:57;153809.53;;;10.70;51.78
10127;BME280;13080;42.608;23.362;2023-04-01T04:11:24;153809.53;;;10.70;51.68
10127;BME280;13080;42.608;23.362;2023-04-01T04:13:51;153808.25;;;10.70;53.31
10127;BME280;13080;42.608;23.362;2023-04-01T04:16:18;153792.66;;;10.64;55.83
10127;BME280;13080;42.608;23.362;2023-04-01T04:18:45;153749.75;;;10.47;55.93
10127;BME280;13080;42.608;23.362;2023-04-01T04:21:13;153699.06;;;10.27;56.97
10127;BME280;13080;42.608;23.362;2023-04-01T04:23:42;153675.69;;;10.17;58.14
10127;BME280;13080;42.608;23.362;2023-04-01T04:26:10;153636.75;;;10.02;58.40
10127;BME280;13080;42.608;23.362;2023-04-01T04:28:37;153600.41;;;9.88;58.82
10127;BME280;13080;42.608;23.362;2023-04-01T04:31:04;153578.34;;;9.79;58.85
10127;BME280;13080;42.608;23.362;2023-04-01T04:33:32;153565.38;;;9.74;59.69
10127;BME280;13080;42.608;23.362;2023-04-01T04:35:59;153571.84;;;9.76;57.27
10127;BME280;13080;42.608;23.362;2023-04-01T04:38:26;153558.91;;;9.71;58.31
10127;BME280;13080;42.608;23.362;2023-04-01T04:40:55;153558.91;;;9.71;58.40
10127;BME280;13080;42.608;23.362;2023-04-01T04:43:22;153587.44;;;9.83;57.77
10127;BME280;13080;42.608;23.362;2023-04-01T04:45:49;153575.78;;;9.78;57.92
10127;BME280;13080;42.608;23.362;2023-04-01T04:48:16;153569.28;;;9.75;59.19
10127;BME280;13080;42.608;23.362;2023-04-01T04:50:46;153574.47;;;9.77;57.75
10127;BME280;13080;42.608;23.362;2023-04-01T04:53:13;153583.53;;;9.81;58.22
10127;BME280;13080;42.608;23.362;2023-04-01T04:55:43;153587.44;;;9.83;56.14
10127;BME280;13080;42.608;23.362;2023-04-01T04:58:11;153679.63;;;10.19;50.83
10127;BME280;13080;42.608;23.362;2023-04-01T05:00:38;153662.72;;;10.12;53.71
10127;BME280;13080;42.608;23.362;2023-04-01T05:03:05;153661.44;;;10.12;54.66
10127;BME280;13080;42.608;23.362;2023-04-01T05:05:31;153679.63;;;10.19;51.16
10127;BME280;13080;42.608;23.362;2023-04-01T05:07:58;153690.00;;;10.23;51.71
10127;BME280;13080;42.608;23.362;2023-04-01T05:10:25;153684.81;;;10.21;56.43
10127;BME280;13080;42.608;23.362;2023-04-01T05:12:52;153678.31;;;10.18;58.33
10127;BME280;13080;42.608;23.362;2023-04-01T05:15:20;153617.28;;;9.94;59.26
10127;BME280;13080;42.608;23.362;2023-04-01T05:17:47;153509.56;;;9.52;61.45
10127;BME280;13080;42.608;23.362;2023-04-01T05:20:14;153487.50;;;9.43;62.41
10127;BME280;13080;42.608;23.362;2023-04-01T05:22:41;153460.22;;;9.32;63.55
10127;BME280;13080;42.608;23.362;2023-04-01T05:25:09;153423.94;;;9.18;63.78
10127;BME280;13080;42.608;23.362;2023-04-01T05:27:36;153397.97;;;9.08;64.16
10127;BME280;13080;42.608;23.362;2023-04-01T05:30:03;153366.84;;;8.95;64.30
10127;BME280;13080;42.608;23.362;2023-04-01T05:32:32;153360.38;;;8.93;64.83
10127;BME280;13080;42.608;23.362;2023-04-01T05:34:58;153381.09;;;9.01;64.67
10127;BME280;13080;42.608;23.362;2023-04-01T05:37:25;153391.47;;;9.05;63.92
10127;BME280;13080;42.608;23.362;2023-04-01T05:39:52;153436.88;;;9.23;65.17
10127;BME280;13080;42.608;23.362;2023-04-01T05:42:19;153486.22;;;9.43;64.56
10127;BME280;13080;42.608;23.362;2023-04-01T05:44:45;153495.31;;;9.46;65.10
10127;BME280;13080;42.608;23.362;2023-04-01T05:47:12;153522.53;;;9.57;64.96
10127;BME280;13080;42.608;23.362;2023-04-01T05:49:40;153525.16;;;9.58;65.50
10127;BME280;13080;42.608;23.362;2023-04-01T05:52:07;153532.91;;;9.61;66.37
10127;BME280;13080;42.608;23.362;2023-04-01T05:54:34;153551.06;;;9.68;66.67
10127;BME280;13080;42.608;23.362;2023-04-01T05:57:01;153570.56;;;9.76;65.67
10127;BME280;13080;42.608;23.362;2023-04-01T05:59:28;153610.81;;;9.92;64.62
10127;BME280;13080;42.608;23.362;2023-04-01T06:01:56;153651.06;;;10.08;64.89
10127;BME280;13080;42.608;23.362;2023-04-01T06:04:23;153691.28;;;10.24;63.76
10127;BME280;13080;42.608;23.362;2023-04-01T06:06:52;153679.63;;;10.19;64.80
10127;BME280;13080;42.608;23.362;2023-04-01T06:09:21;153696.50;;;10.26;65.30
10127;BME280;13080;42.608;23.362;2023-04-01T06:12:04;153712.13;;;10.32;65.66
10127;BME280;13080;42.608;23.362;2023-04-01T06:14:42;153752.38;;;10.48;65.55
10127;BME280;13080;42.608;23.362;2023-04-01T06:17:22;153778.34;;;10.58;64.83
10127;BME280;13080;42.608;23.362;2023-04-01T06:19:56;153803.06;;;10.68;64.75
10127;BME280;13080;42.608;23.362;2023-04-01T06:22:37;153795.22;;;10.65;65.07
10127;BME280;13080;42.608;23.362;2023-04-01T06:25:21;153814.72;;;10.72;64.81
10127;BME280;13080;42.608;23.362;2023-04-01T06:28:03;153834.19;;;10.80;64.50
10127;BME280;13080;42.608;23.362;2023-04-01T06:30:40;153848.50;;;10.86;63.64
10127;BME280;13080;42.608;23.362;2023-04-01T06:33:35;153891.34;;;11.02;62.69
10127;BME280;13080;42.608;23.362;2023-04-01T06:39:12;153934.25;;;11.19;60.35
10127;BME280;13080;42.608;23.362;2023-04-01T06:42:02;153961.56;;;11.30;59.82
10127;BME280;13080;42.608;23.362;2023-04-01T06:44:40;154001.84;;;11.46;59.63
10127;BME280;13080;42.608;23.362;2023-04-01T06:47:23;154051.19;;;11.65;57.12
10127;BME280;13080;42.608;23.362;2023-04-01T06:50:00;154020.03;;;11.53;57.96
10127;BME280;13080;42.608;23.362;2023-04-01T06:52:38;153984.94;;;11.39;59.05
10127;BME280;13080;42.608;23.362;2023-04-01T06:55:21;154013.53;;;11.51;58.59
10127;BME280;13080;42.608;23.362;2023-04-01T06:57:52;154013.53;;;11.51;60.07
10127;BME280;13080;42.608;23.362;2023-04-01T07:00:27;153994.00;;;11.43;59.79
10127;BME280;13080;42.608;23.362;2023-04-01T07:03:02;153968.03;;;11.33;58.97
10127;BME280;13080;42.608;23.362;2023-04-01T07:05:33;153983.59;;;11.39;60.13
10127;BME280;13080;42.608;23.362;2023-04-01T07:08:03;154003.13;;;11.47;59.95
10127;BME280;13080;42.608;23.362;2023-04-01T07:10:38;153995.34;;;11.43;58.48
10127;BME280;13080;42.608;23.362;2023-04-01T07:13:14;154021.31;;;11.54;58.11
10127;BME280;13080;42.608;23.362;2023-04-01T07:15:48;153991.44;;;11.42;59.62
10127;BME280;13080;42.608;23.362;2023-04-01T07:18:18;153988.81;;;11.41;60.57
10127;BME280;13080;42.608;23.362;2023-04-01T07:20:48;154014.81;;;11.51;60.34
10127;BME280;13080;42.608;23.362;2023-04-01T07:23:21;154009.63;;;11.49;60.50
10127;BME280;13080;42.608;23.362;2023-04-01T07:25:55;154009.63;;;11.49;59.76
10127;BME280;13080;42.608;23.362;2023-04-01T07:28:22;154013.53;;;11.51;60.48
10127;BME280;13080;42.608;23.362;2023-04-01T07:30:57;154026.50;;;11.56;60.32
10127;BME280;13080;42.608;23.362;2023-04-01T07:33:33;154049.91;;;11.65;59.85
10127;BME280;13080;42.608;23.362;2023-04-01T07:36:10;154038.22;;;11.60;61.10
10127;BME280;13080;42.608;23.362;2023-04-01T07:38:48;154061.59;;;11.70;60.94
10127;BME280;13080;42.608;23.362;2023-04-01T07:41:24;154074.59;;;11.75;60.31
10127;BME280;13080;42.608;23.362;2023-04-01T07:44:03;154081.13;;;11.77;61.35
10127;BME280;13080;42.608;23.362;2023-04-01T07:46:52;154091.47;;;11.81;59.51
10127;BME280;13080;42.608;23.362;2023-04-01T07:49:26;154153.94;;;12.06;59.30
10127;BME280;13080;42.608;23.362;2023-04-01T07:52:01;154176.06;;;12.15;59.28
10127;BME280;13080;42.608;23.362;2023-04-01T07:54:37;154190.38;;;12.20;59.42
10127;BME280;13080;42.608;23.362;2023-04-01T07:57:12;154203.38;;;12.25;59.33
10127;BME280;13080;42.608;23.362;2023-04-01T07:59:47;154169.56;;;12.12;59.40
10127;BME280;13080;42.608;23.362;2023-04-01T08:02:28;154121.47;;;11.93;61.03
10127;BME280;13080;42.608;23.362;2023-04-01T08:05:06;154038.22;;;11.60;61.82
10127;BME280;13080;42.608;23.362;2023-04-01T08:07:43;154085.00;;;11.79;61.81
10127;BME280;13080;42.608;23.362;2023-04-01T08:10:18;154111.06;;;11.89;61.71
10127;BME280;13080;42.608;23.362;2023-04-01T08:12:55;154118.84;;;11.92;60.60
10127;BME280;13080;42.608;23.362;2023-04-01T08:15:27;154130.53;;;11.97;61.48
10127;BME280;13080;42.608;23.362;2023-04-01T08:18:03;154147.44;;;12.03;61.72
10127;BME280;13080;42.608;23.362;2023-04-01T08:20:35;154225.47;;;12.34;60.31
10127;BME280;13080;42.608;23.362;2023-04-01T08:23:07;154298.31;;;12.63;59.29
10127;BME280;13080;42.608;23.362;2023-04-01T08:25:40;154372.47;;;12.92;58.63
10127;BME280;13080;42.608;23.362;2023-04-01T08:28:16;154388.09;;;12.98;58.45
10127;BME280;13080;42.608;23.362;2023-04-01T08:30:47;154399.81;;;13.03;57.73
10127;BME280;13080;42.608;23.362;2023-04-01T08:33:19;154349.06;;;12.83;59.65
10127;BME280;13080;42.608;23.362;2023-04-01T08:35:52;154380.25;;;12.95;57.55
10127;BME280;13080;42.608;23.362;2023-04-01T08:38:23;154416.72;;;13.09;57.21
10127;BME280;13080;42.608;23.362;2023-04-01T08:41:20;154462.28;;;13.27;56.54
10127;BME280;13080;42.608;23.362;2023-04-01T08:44:32;154535.16;;;13.56;54.11
10127;BME280;13080;42.608;23.362;2023-04-01T08:50:26;154574.22;;;13.71;52.92
10127;BME280;13080;42.608;23.362;2023-04-01T08:53:06;154625.00;;;13.91;53.26
10127;BME280;13080;42.608;23.362;2023-04-01T08:55:51;154664.06;;;14.07;54.17
10127;BME280;13080;42.608;23.362;2023-04-01T08:58:51;154708.34;;;14.24;54.18
10127;BME280;13080;42.608;23.362;2023-04-01T09:01:53;154770.88;;;14.49;51.53
10127;BME280;13080;42.608;23.362;2023-04-01T09:04:27;154882.94;;;14.93;52.36
10127;BME280;13080;42.608;23.362;2023-04-01T09:07:09;154924.66;;;15.09;48.90
10127;BME280;13080;42.608;23.362;2023-04-01T09:10:16;155001.53;;;15.39;48.95
10127;BME280;13080;42.608;23.362;2023-04-01T09:13:08;155104.53;;;15.80;45.99
10127;BME280;13080;42.608;23.362;2023-04-01T09:15:58;155181.50;;;16.10;43.90
10127;BME280;13080;42.608;23.362;2023-04-01T09:19:12;155216.69;;;16.24;43.16
10127;BME280;13080;42.608;23.362;2023-04-01T09:22:16;155238.88;;;16.33;43.32
10127;BME280;13080;42.608;23.362;2023-04-01T09:25:06;155345.84;;;16.75;42.67
10127;BME280;13080;42.608;23.362;2023-04-01T09:27:44;155425.44;;;17.06;39.55
10127;BME280;13080;42.608;23.362;2023-04-01T09:30:33;155447.63;;;17.15;39.53
10127;BME280;13080;42.608;23.362;2023-04-01T09:36:28;155625.19;;;17.84;38.91
10127;BME280;13080;42.608;23.362;2023-04-01T09:39:24;155446.34;;;17.14;40.51
10127;BME280;13080;42.608;23.362;2023-04-01T09:44:44;155539.00;;;17.51;42.21
10127;BME280;13080;42.608;23.362;2023-04-01T09:47:25;155593.84;;;17.72;41.49
10127;BME280;13080;42.608;23.362;2023-04-01T09:50:20;155524.66;;;17.45;39.29
10127;BME280;13080;42.608;23.362;2023-04-01T09:53:03;155421.56;;;17.04;40.20
10127;BME280;13080;42.608;23.362;2023-04-01T09:56:08;155422.84;;;17.05;39.16
10127;BME280;13080;42.608;23.362;2023-04-01T09:59:17;155486.78;;;17.30;39.28
10127;BME280;13080;42.608;23.362;2023-04-01T10:02:14;155565.13;;;17.61;40.28
10127;BME280;13080;42.608;23.362;2023-04-01T10:05:17;155612.09;;;17.79;40.19
10127;BME280;13080;42.608;23.362;2023-04-01T10:08:22;155495.94;;;17.34;41.39
10127;BME280;13080;42.608;23.362;2023-04-01T10:11:08;155478.97;;;17.27;42.78
10127;BME280;13080;42.608;23.362;2023-04-01T10:20:12;155347.13;;;16.75;44.24
10127;BME280;13080;42.608;23.362;2023-04-01T10:26:25;155288.41;;;16.52;43.70
10127;BME280;13080;42.608;23.362;2023-04-01T10:29:12;155364.16;;;16.82;43.57
10127;BME280;13080;42.608;23.362;2023-04-01T10:32:08;155259.72;;;16.41;41.83
10127;BME280;13080;42.608;23.362;2023-04-01T10:41:00;155588.59;;;17.70;40.85
10127;BME280;13080;42.608;23.362;2023-04-01T10:43:59;155655.25;;;17.96;35.90
10127;BME280;13080;42.608;23.362;2023-04-01T10:53:36;155685.28;;;18.08;34.96
10127;BME280;13080;42.608;23.362;2023-04-01T10:59:14;155622.59;;;17.83;35.30
10127;BME280;13080;42.608;23.362;2023-04-01T11:02:05;155557.31;;;17.58;35.80
10127;BME280;13080;42.608;23.362;2023-04-01T11:08:11;155484.19;;;17.29;37.37
10127;BME280;13080;42.608;23.362;2023-04-01T11:14:35;155469.81;;;17.23;37.18
10127;BME280;13080;42.608;23.362;2023-04-01T11:17:27;155407.19;;;16.99;37.70
10127;BME280;13080;42.608;23.362;2023-04-01T11:23:13;155339.28;;;16.72;38.57
10127;BME280;13080;42.608;23.362;2023-04-01T11:25:54;155311.94;;;16.61;40.12
10127;BME280;13080;42.608;23.362;2023-04-01T11:28:37;155276.66;;;16.48;40.46
10127;BME280;13080;42.608;23.362;2023-04-01T11:34:26;155160.63;;;16.02;41.07
10127;BME280;13080;42.608;23.362;2023-04-01T11:37:02;155135.88;;;15.92;42.12
10127;BME280;13080;42.608;23.362;2023-04-01T11:39:40;155118.91;;;15.86;43.00
10127;BME280;13080;42.608;23.362;2023-04-01T11:42:17;155019.75;;;15.47;54.50
10127;BME280;13080;42.608;23.362;2023-04-01T11:44:55;154793.06;;;14.58;58.89
10127;BME280;13080;42.608;23.362;2023-04-01T11:47:45;154561.22;;;13.66;65.73
10127;BME280;13080;42.608;23.362;2023-04-01T11:50:31;154388.09;;;12.98;72.11
10127;BME280;13080;42.608;23.362;2023-04-01T11:53:18;154250.19;;;12.44;80.47
10127;BME280;13080;42.608;23.362;2023-04-01T11:55:56;154208.56;;;12.27;79.69
10127;BME280;13080;42.608;23.362;2023-04-01T11:58:36;154048.63;;;11.64;82.24
10127;BME280;13080;42.608;23.362;2023-04-01T12:01:20;153917.34;;;11.13;87.58
10127;BME280;13080;42.608;23.362;2023-04-01T12:04:27;153810.81;;;10.71;89.75
10127;BME280;13080;42.608;23.362;2023-04-01T12:07:05;153704.31;;;10.29;93.71
10127;BME280;13080;42.608;23.362;2023-04-01T12:09:37;153590.03;;;9.84;96.62
10127;BME280;13080;42.608;23.362;2023-04-01T12:12:14;153587.44;;;9.83;100.00
10127;BME280;13080;42.608;23.362;2023-04-01T12:14:50;153603.03;;;9.89;100.00
10127;BME280;13080;42.608;23.362;2023-04-01T12:17:30;153661.44;;;10.12;100.00
10127;BME280;13080;42.608;23.362;2023-04-01T12:20:16;153662.72;;;10.12;97.77
10127;BME280;13080;42.608;23.362;2023-04-01T12:22:57;153688.72;;;10.23;100.00
10127;BME280;13080;42.608;23.362;2023-04-01T12:25:41;153717.34;;;10.34;100.00
10127;BME280;13080;42.608;23.362;2023-04-01T12:28:16;153725.09;;;10.37;100.00
10127;BME280;13080;42.608;23.362;2023-04-01T12:30:50;153764.06;;;10.52;100.00
10127;BME280;13080;42.608;23.362;2023-04-01T12:36:30;153918.66;;;11.13;100.00
10127;BME280;13080;42.608;23.362;2023-04-01T12:39:33;154001.84;;;11.46;100.00
10127;BME280;13080;42.608;23.362;2023-04-01T12:42:10;154008.31;;;11.49;98.33
10127;BME280;13080;42.608;23.362;2023-04-01T12:44:56;153955.00;;;11.28;97.79
10127;BME280;13080;42.608;23.362;2023-04-01T12:47:41;153883.56;;;10.99;92.51
10127;BME280;13080;42.608;23.362;2023-04-01T12:50:22;153805.63;;;10.69;96.40
10127;BME280;13080;42.608;23.362;2023-04-01T12:53:06;153760.16;;;10.51;99.18
10127;BME280;13080;42.608;23.362;2023-04-01T12:55:40;153722.53;;;10.36;100.00
10127;BME280;13080;42.608;23.362;2023-04-01T12:58:42;153678.31;;;10.18;93.03
10127;BME280;13080;42.608;23.362;2023-04-01T13:01:23;153662.72;;;10.12;95.68
10127;BME280;13080;42.608;23.362;2023-04-01T13:07:23;153717.34;;;10.34;100.00
10127;BME280;13080;42.608;23.362;2023-04-01T13:09:59;153719.91;;;10.35;100.00
10127;BME280;13080;42.608;23.362;2023-04-01T13:12:47;153701.69;;;10.28;100.00
10127;BME280;13080;42.608;23.362;2023-04-01T13:15:28;153700.41;;;10.27;100.00
10127;BME280;13080;42.608;23.362;2023-04-01T13:18:08;153771.84;;;10.55;100.00
10127;BME280;13080;42.608;23.362;2023-04-01T13:20:44;153814.72;;;10.72;100.00
10127;BME280;13080;42.608;23.362;2023-04-01T13:23:24;153844.59;;;10.84;100.00
10127;BME280;13080;42.608;23.362;2023-04-01T13:26:03;153893.97;;;11.03;100.00
10127;BME280;13080;42.608;23.362;2023-04-01T13:28:39;153886.16;;;11.00;100.00
10127;BME280;13080;42.608;23.362;2023-04-01T13:31:24;153893.97;;;11.03;100.00
10127;BME280;13080;42.608;23.362;2023-04-01T13:34:02;153970.63;;;11.34;100.00
10127;BME280;13080;42.608;23.362;2023-04-01T13:36:38;154005.69;;;11.48;100.00
10127;BME280;13080;42.608;23.362;2023-04-01T13:39:35;154072.00;;;11.74;98.25
10127;BME280;13080;42.608;23.362;2023-04-01T13:42:16;154091.47;;;11.81;96.69
10127;BME280;13080;42.608;23.362;2023-04-01T13:44:48;154121.47;;;11.93;86.52
10127;BME280;13080;42.608;23.362;2023-04-01T13:50:38;154212.50;;;12.29;89.17
10127;BME280;13080;42.608;23.362;2023-04-01T13:56:26;154261.88;;;12.48;83.49
10127;BME280;13080;42.608;23.362;2023-04-01T13:59:15;154235.88;;;12.38;82.52
10127;BME280;13080;42.608;23.362;2023-04-01T14:01:54;154202.06;;;12.25;86.03
10127;BME280;13080;42.608;23.362;2023-04-01T14:04:49;154203.38;;;12.25;82.81
10127;BME280;13080;42.608;23.362;2023-04-01T14:07:45;154179.97;;;12.16;76.70
10127;BME280;13080;42.608;23.362;2023-04-01T14:10:20;154130.53;;;11.97;74.71
10127;BME280;13080;42.608;23.362;2023-04-01T14:12:58;154094.09;;;11.82;79.61
10127;BME280;13080;42.608;23.362;2023-04-01T14:15:40;154038.22;;;11.60;71.47
10127;BME280;13080;42.608;23.362;2023-04-01T14:18:45;154034.28;;;11.59;71.48
10127;BME280;13080;42.608;23.362;2023-04-01T14:21:38;154020.03;;;11.53;70.37
10127;BME280;13080;42.608;23.362;2023-04-01T14:24:27;154051.19;;;11.65;70.60
10127;BME280;13080;42.608;23.362;2023-04-01T14:27:30;154062.88;;;11.70;75.59
10127;BME280;13080;42.608;23.362;2023-04-01T14:30:25;154048.63;;;11.64;84.01
10127;BME280;13080;42.608;23.362;2023-04-01T14:33:01;154012.25;;;11.50;85.44